createdAt,value
2023-03-07T00:05:17.469Z,-0.10
2023-03-07T00:10:51.462Z,-0.09
2023-03-07T00:16:18.501Z,-0.10
2023-03-07T00:21:43.453Z,-0.11
2023-03-07T00:27:11.476Z,-0.11
2023-03-07T00:32:35.504Z,-0.15
2023-03-07T00:38:00.461Z,-0.18
2023-03-07T00:43:28.465Z,-0.18
2023-03-07T00:48:54.457Z,-0.14
2023-03-07T00:54:19.496Z,-0.14
2023-03-07T00:59:47.485Z,-0.11
2023-03-07T01:05:11.477Z,-0.09
2023-03-07T01:10:37.478Z,-0.09
2023-03-07T01:16:04.475Z,-0.12
2023-03-07T01:21:31.486Z,-0.16
2023-03-07T01:26:57.498Z,-0.14
2023-03-07T01:32:25.528Z,-0.18
2023-03-07T01:37:49.512Z,-0.20
2023-03-07T01:43:33.486Z,-0.21
2023-03-07T01:49:17.502Z,-0.18
2023-03-07T01:54:55.485Z,-0.16
2023-03-07T02:00:26.506Z,-0.11
2023-03-07T02:05:59.502Z,-0.02
2023-03-07T02:11:31.521Z,0.07
2023-03-07T02:16:57.481Z,0.10
2023-03-07T02:22:29.474Z,0.15
2023-03-07T02:28:00.477Z,0.23
2023-03-07T02:33:26.510Z,0.28
2023-03-07T02:38:58.544Z,0.32
2023-03-07T02:44:25.513Z,0.40
2023-03-07T02:49:50.614Z,0.47
2023-03-07T02:55:15.502Z,0.53
2023-03-07T03:00:50.560Z,0.54
2023-03-07T03:06:16.583Z,0.58
2023-03-07T03:11:50.631Z,0.60
2023-03-07T03:17:20.545Z,0.63
2023-03-07T03:22:45.568Z,0.65
2023-03-07T03:28:12.543Z,0.69
2023-03-07T03:33:39.553Z,0.70
2023-03-07T03:39:06.527Z,0.72
2023-03-07T03:44:36.553Z,0.75
2023-03-07T03:50:04.572Z,0.76
2023-03-07T03:55:30.573Z,0.80
2023-03-07T04:00:55.548Z,0.82
2023-03-07T04:06:27.638Z,0.85
2023-03-07T04:11:59.561Z,0.86
2023-03-07T04:17:24.534Z,0.85
2023-03-07T04:22:51.617Z,0.88
2023-03-07T04:28:16.552Z,0.93
2023-03-07T04:33:41.557Z,0.95
2023-03-07T04:39:09.537Z,0.97
2023-03-07T04:44:36.552Z,0.96
2023-03-07T04:50:01.546Z,0.95
2023-03-07T04:55:30.563Z,1.02
2023-03-07T05:00:56.691Z,1.06
2023-03-07T05:06:23.581Z,1.13
2023-03-07T05:12:01.116Z,1.10
2023-03-07T05:17:25.558Z,1.16
2023-03-07T05:22:49.570Z,1.13
2023-03-07T05:28:17.597Z,1.19
2023-03-07T05:33:42.600Z,1.20
2023-03-07T05:39:07.612Z,1.18
2023-03-07T05:44:35.543Z,1.21
2023-03-07T05:50:00.590Z,1.23
2023-03-07T05:55:25.589Z,1.23
2023-03-07T06:00:54.595Z,1.24
2023-03-07T06:06:19.605Z,1.17
2023-03-07T06:11:50.582Z,1.18
2023-03-07T06:17:18.579Z,1.18
2023-03-07T06:22:44.564Z,1.22
2023-03-07T06:28:09.593Z,1.25
2023-03-07T06:33:36.608Z,1.26
2023-03-07T06:39:01.611Z,1.28
2023-03-07T06:44:26.682Z,1.38
2023-03-07T06:49:54.585Z,1.48
2023-03-07T06:55:21.613Z,1.53
2023-03-07T07:00:46.592Z,1.65
2023-03-07T07:06:13.632Z,1.69
2023-03-07T07:11:45.629Z,1.74
2023-03-07T07:17:10.659Z,1.80
2023-03-07T07:22:37.665Z,1.93
2023-03-07T07:28:02.599Z,1.99
2023-03-07T07:33:26.690Z,2.08
2023-03-07T07:38:54.614Z,2.16
2023-03-07T07:44:19.648Z,2.27
2023-03-07T07:49:47.639Z,2.37
2023-03-07T07:55:16.642Z,2.46
2023-03-07T08:00:41.649Z,2.50
2023-03-07T08:06:05.642Z,2.55
2023-03-07T08:11:33.631Z,2.57
2023-03-07T08:16:57.650Z,2.59
2023-03-07T08:22:23.648Z,2.64
2023-03-07T08:27:50.686Z,2.72
2023-03-07T08:33:15.647Z,2.81
2023-03-07T08:38:39.632Z,2.92
2023-03-07T08:44:07.644Z,3.08
2023-03-07T08:49:31.672Z,3.19
2023-03-07T09:00:21.671Z,3.32
2023-03-07T09:05:48.633Z,3.39
2023-03-07T09:11:19.668Z,3.45
2023-03-07T09:16:53.650Z,3.53
2023-03-07T09:22:18.652Z,3.61
2023-03-07T09:27:42.657Z,3.73
2023-03-07T09:33:10.674Z,3.88
2023-03-07T09:38:34.664Z,4.07
2023-03-07T09:44:07.651Z,4.13
2023-03-07T09:50:00.659Z,4.26
2023-03-07T09:55:29.670Z,4.46
2023-03-07T10:00:57.709Z,4.47
2023-03-07T10:06:39.697Z,4.59
2023-03-07T10:12:34.688Z,4.63
2023-03-07T10:18:20.664Z,4.57
2023-03-07T10:23:59.688Z,4.61
2023-03-07T10:29:28.727Z,4.64
2023-03-07T10:34:54.687Z,4.73
2023-03-07T10:40:29.699Z,4.84
2023-03-07T10:45:53.702Z,5.12
2023-03-07T10:51:33.695Z,5.28
2023-03-07T10:57:19.675Z,5.23
2023-03-07T11:02:47.682Z,5.31
2023-03-07T11:08:12.677Z,5.55
2023-03-07T11:13:41.708Z,5.64
2023-03-07T11:19:05.688Z,5.74
2023-03-07T11:24:35.724Z,5.93
2023-03-07T11:30:21.697Z,5.97
2023-03-07T11:36:12.679Z,6.03
2023-03-07T11:41:42.692Z,6.08
2023-03-07T11:47:31.705Z,6.20
2023-03-07T11:53:10.744Z,6.02
2023-03-07T11:58:45.722Z,6.16
2023-03-07T12:04:55.709Z,5.97
2023-03-07T12:10:37.721Z,5.83
2023-03-07T12:16:12.812Z,5.73
2023-03-07T12:22:10.909Z,5.80
2023-03-07T12:27:42.732Z,5.85
2023-03-07T12:33:08.834Z,5.93
2023-03-07T12:38:42.717Z,5.79
2023-03-07T12:44:12.729Z,5.88
2023-03-07T12:49:50.073Z,5.98
2023-03-07T12:55:29.747Z,6.15
2023-03-07T13:00:58.771Z,6.17
2023-03-07T13:06:27.757Z,6.26
2023-03-07T13:12:30.748Z,6.09
2023-03-07T13:18:08.733Z,6.11
2023-03-07T13:23:43.763Z,6.11
2023-03-07T13:29:11.752Z,6.09
2023-03-07T13:35:02.772Z,6.14
2023-03-07T13:40:57.785Z,6.08
2023-03-07T13:46:58.818Z,5.78
2023-03-07T13:52:51.746Z,5.75
2023-03-07T13:58:31.763Z,5.73
2023-03-07T14:04:02.794Z,5.60
2023-03-07T14:09:33.341Z,5.50
2023-03-07T14:15:12.769Z,5.51
2023-03-07T14:20:47.769Z,5.37
2023-03-07T14:26:21.809Z,5.34
2023-03-07T14:31:52.770Z,5.29
2023-03-07T14:37:25.780Z,5.22
2023-03-07T14:42:56.790Z,5.20
2023-03-07T14:48:52.870Z,5.16
2023-03-07T14:54:31.798Z,5.15
2023-03-07T15:00:12.864Z,5.12
2023-03-07T15:05:38.788Z,5.15
2023-03-07T15:11:11.816Z,5.14
2023-03-07T15:16:40.808Z,5.13
2023-03-07T15:22:08.812Z,5.12
2023-03-07T15:27:40.807Z,5.11
2023-03-07T15:33:21.836Z,5.07
2023-03-07T15:38:45.868Z,5.08
2023-03-07T15:44:27.870Z,5.04
2023-03-07T15:49:57.842Z,5.05
2023-03-07T15:55:28.837Z,5.03
2023-03-07T16:00:56.856Z,5.03
2023-03-07T16:06:40.833Z,4.98
2023-03-07T16:12:11.835Z,4.96
2023-03-07T16:17:44.080Z,4.95
2023-03-07T16:23:08.846Z,4.99
2023-03-07T16:28:33.834Z,4.94
2023-03-07T16:34:02.888Z,4.88
2023-03-07T16:39:27.872Z,4.78
2023-03-07T16:44:55.996Z,4.70
2023-03-07T16:50:31.077Z,4.61
2023-03-07T16:56:00.016Z,4.43
2023-03-07T17:01:25.888Z,4.01
2023-03-07T17:07:04.771Z,3.57
2023-03-07T17:12:39.922Z,3.08
2023-03-07T17:18:05.040Z,2.67
2023-03-07T17:23:33.065Z,2.31
2023-03-07T17:28:58.866Z,2.04
2023-03-07T17:34:32.886Z,1.91
2023-03-07T17:40:01.849Z,1.71
2023-03-07T17:45:28.927Z,1.54
2023-03-07T17:50:56.376Z,1.43
2023-03-07T17:56:27.884Z,1.33
2023-03-07T18:01:52.918Z,1.26
2023-03-07T18:07:17.883Z,1.20
2023-03-07T18:12:52.878Z,1.12
2023-03-07T18:18:17.867Z,1.03
2023-03-07T18:23:42.898Z,0.93
2023-03-07T18:29:10.888Z,0.87
2023-03-07T18:34:35.898Z,0.84
2023-03-07T18:40:00.930Z,0.75
2023-03-07T18:45:30.869Z,0.64
2023-03-07T18:51:04.889Z,0.57
2023-03-07T18:56:30.886Z,0.50
2023-03-07T19:01:58.917Z,0.54
2023-03-07T19:07:23.916Z,0.49
2023-03-07T19:12:54.894Z,0.50
2023-03-07T19:18:22.911Z,0.47
2023-03-07T19:23:46.897Z,0.42
2023-03-07T19:29:11.906Z,0.35
2023-03-07T19:34:38.904Z,0.27
2023-03-07T19:40:03.916Z,0.23
2023-03-07T19:45:27.928Z,0.21
2023-03-07T19:50:55.905Z,0.19
2023-03-07T19:56:24.918Z,0.14
2023-03-07T20:01:49.960Z,0.12
2023-03-07T20:07:20.970Z,0.07
2023-03-07T20:12:51.927Z,0.05
2023-03-07T20:18:17.915Z,0.05
2023-03-07T20:23:44.908Z,0.03
2023-03-07T20:29:12.961Z,0.04
2023-03-07T20:34:38.070Z,0.03
2023-03-07T20:40:05.941Z,0.07
2023-03-07T20:45:33.947Z,0.06
2023-03-07T20:51:06.956Z,0.04
2023-03-07T20:56:40.998Z,0.06
2023-03-07T21:02:05.961Z,0.09
2023-03-07T21:07:30.936Z,0.13
2023-03-07T21:13:06.047Z,0.09
2023-03-07T21:18:30.962Z,0.08
2023-03-07T21:23:54.968Z,0.09
2023-03-07T21:29:22.993Z,0.10
2023-03-07T21:34:46.951Z,0.15
2023-03-07T21:40:13.963Z,0.17
2023-03-07T21:45:40.991Z,0.13
2023-03-07T21:51:05.948Z,0.14
2023-03-07T21:56:32.997Z,0.08
2023-03-07T22:02:01.030Z,0.07
2023-03-07T22:07:24.975Z,0.02
2023-03-07T22:12:55.985Z,-0.01
2023-03-07T22:18:24.009Z,0.02
2023-03-07T22:23:47.979Z,0.09
2023-03-07T22:29:14.018Z,0.06
2023-03-07T22:34:40.989Z,0.06
2023-03-07T22:40:06.955Z,0.05
2023-03-07T22:45:30.959Z,0.07
2023-03-07T22:50:58.975Z,0.07
2023-03-07T22:56:29.990Z,0.07
2023-03-07T23:01:55.014Z,0.08
2023-03-07T23:07:23.064Z,0.03
2023-03-07T23:12:54.035Z,-0.01
2023-03-07T23:18:18.976Z,0.03
2023-03-07T23:23:46.011Z,0.05
2023-03-07T23:29:12.008Z,0.07
2023-03-07T23:34:36.995Z,0.08
2023-03-07T23:40:05.023Z,0.04
2023-03-07T23:45:29.013Z,-0.02
2023-03-07T23:50:54.034Z,-0.01
2023-03-07T23:56:24.008Z,-0.01
